Time;durP1;ratioP1;P1;durP2;ratioP2;P2;SDS_P1;SDS_P2;PMS_P1;PMS_P2;Temp;Humidity;BMP_temperature;BMP_pressure;BME280_temperature;BME280_humidity;BME280_pressure;Samples;Min_cycle;Max_cycle;Signal;HPM_P1;HPM_P2
2024/02/26 00:02:08;;;;;;;4.40;2.97;;;1.20;99.90;;;;;;5001769;28;20229;-80
2024/02/26 00:04:35;;;;;;;4.03;3.10;;;1.20;99.90;;;;;;4994841;28;20895;-80
2024/02/26 00:07:02;;;;;;;4.03;2.73;;;1.60;16.60;;;;;;4982819;28;20221;-80
2024/02/26 00:09:30;;;;;;;6.53;3.30;;;1.10;1.00;;;;;;4982996;28;20245;-80
2024/02/26 00:11:57;;;;;;;4.97;3.00;;;1.10;99.90;;;;;;4984323;28;20265;-80
2024/02/26 00:14:24;;;;;;;4.53;3.20;;;1.00;99.90;;;;;;4980376;28;20233;-80
2024/02/26 00:16:51;;;;;;;3.73;3.03;;;0.80;99.90;;;;;;4983777;28;20202;-80
2024/02/26 00:19:19;;;;;;;5.43;3.10;;;0.80;99.90;;;;;;4995527;28;20271;-81
2024/02/26 00:21:46;;;;;;;5.30;3.10;;;1.00;1.00;;;;;;4998741;28;20228;-79
2024/02/26 00:24:13;;;;;;;5.20;3.37;;;1.50;1.00;;;;;;4992309;28;20269;-80
2024/02/26 00:26:40;;;;;;;3.93;3.20;;;1.10;99.90;;;;;;4990996;28;20209;-80
2024/02/26 00:29:06;;;;;;;4.00;3.60;;;1.10;1.00;;;;;;4992069;28;20217;-80
2024/02/26 00:31:33;;;;;;;4.50;3.30;;;1.00;99.90;;;;;;4998661;28;20295;-80
2024/02/26 00:34:00;;;;;;;4.70;3.23;;;1.00;1.00;;;;;;4993074;28;20657;-80
2024/02/26 00:36:28;;;;;;;6.57;3.47;;;1.10;1.00;;;;;;4984498;28;20202;-80
2024/02/26 00:38:55;;;;;;;4.47;3.07;;;1.10;1.00;;;;;;4989432;28;20692;-80
2024/02/26 00:41:23;;;;;;;4.70;3.30;;;1.00;99.90;;;;;;4991241;28;20200;-80
2024/02/26 00:43:50;;;;;;;3.83;3.10;;;1.10;1.00;;;;;;4988805;28;20213;-79
2024/02/26 00:46:16;;;;;;;5.57;3.47;;;0.90;99.90;;;;;;4993377;28;20313;-80
2024/02/26 00:48:43;;;;;;;4.33;3.47;;;0.60;99.90;;;;;;4995775;28;20736;-79
2024/02/26 00:51:10;;;;;;;5.50;4.17;;;0.90;1.00;;;;;;4995552;28;20205;-80
2024/02/26 00:53:38;;;;;;;6.27;3.73;;;1.00;99.90;;;;;;4996741;28;20219;-80
2024/02/26 00:56:06;;;;;;;5.50;3.87;;;1.10;30.50;;;;;;4995439;28;20208;-80
2024/02/26 00:58:33;;;;;;;6.17;4.03;;;1.00;1.00;;;;;;4996758;28;20205;-81
2024/02/26 01:01:00;;;;;;;6.13;3.90;;;0.90;1.00;;;;;;5000779;28;20213;-81
2024/02/26 01:03:27;;;;;;;5.93;4.00;;;0.90;1.00;;;;;;5003971;28;20235;-80
2024/02/26 01:05:53;;;;;;;6.43;3.67;;;0.90;1.00;;;;;;5003602;28;20244;-78
2024/02/26 01:08:20;;;;;;;5.47;3.73;;;0.80;1.00;;;;;;4986465;28;20202;-80
2024/02/26 01:10:48;;;;;;;5.63;3.73;;;0.90;1.00;;;;;;4981614;28;20257;-79
2024/02/26 01:13:15;;;;;;;5.17;3.80;;;0.90;1.00;;;;;;4987241;28;20206;-80
2024/02/26 01:15:43;;;;;;;5.57;3.60;;;0.80;1.00;;;;;;4987196;28;20237;-81
2024/02/26 01:18:10;;;;;;;4.67;3.43;;;1.00;50.50;;;;;;4983087;28;20209;-80
2024/02/26 01:20:37;;;;;;;5.97;3.87;;;1.00;1.00;;;;;;4990674;28;20224;-79
2024/02/26 01:23:05;;;;;;;6.67;3.80;;;0.90;1.00;;;;;;5005825;28;20205;-79
2024/02/26 01:25:31;;;;;;;5.40;3.93;;;1.00;1.00;;;;;;5003855;28;20691;-79
2024/02/26 01:28:00;;;;;;;5.53;3.70;;;1.10;1.00;;;;;;4992715;28;20297;-81
2024/02/26 01:30:26;;;;;;;5.40;3.97;;;1.10;1.00;;;;;;4986102;28;20217;-80
2024/02/26 01:32:53;;;;;;;6.43;4.10;;;1.20;1.00;;;;;;4992600;28;20288;-81
2024/02/26 01:35:22;;;;;;;5.87;4.03;;;1.30;1.00;;;;;;4987231;28;20573;-79
2024/02/26 01:37:49;;;;;;;5.87;4.47;;;1.10;99.90;;;;;;4984882;28;20205;-80
2024/02/26 01:40:19;;;;;;;7.63;4.07;;;0.90;99.90;;;;;;4987540;28;20315;-78
2024/02/26 01:42:46;;;;;;;5.60;3.70;;;0.80;1.00;;;;;;4986471;28;20209;-80
2024/02/26 01:45:21;;;;;;;6.10;4.00;;;0.70;1.00;;;;;;4985361;28;20320;-79
2024/02/26 01:47:49;;;;;;;5.13;4.10;;;0.90;1.00;;;;;;4995003;28;20200;-81
2024/02/26 01:50:16;;;;;;;6.97;4.50;;;0.90;1.00;;;;;;4986569;28;20575;-81
2024/02/26 01:52:44;;;;;;;6.47;4.57;;;0.90;1.00;;;;;;4989940;28;20288;-80
2024/02/26 01:55:11;;;;;;;5.03;3.90;;;0.90;1.00;;;;;;4993069;28;20639;-80
2024/02/26 01:57:38;;;;;;;5.53;4.40;;;1.00;1.00;;;;;;4994149;28;20288;-80
2024/02/26 02:00:07;;;;;;;6.20;4.33;;;1.00;1.00;;;;;;4985342;28;20289;-79
2024/02/26 02:02:36;;;;;;;6.63;4.10;;;1.00;1.00;;;;;;4978607;28;20202;-80
2024/02/26 02:05:03;;;;;;;5.73;4.20;;;1.00;1.00;;;;;;5009253;28;20216;-80
2024/02/26 02:07:31;;;;;;;6.27;4.20;;;1.10;1.00;;;;;;4993842;28;20201;-80
2024/02/26 02:09:58;;;;;;;6.50;4.07;;;1.10;1.00;;;;;;4989852;28;20271;-81
2024/02/26 02:12:25;;;;;;;5.57;3.97;;;1.50;1.00;;;;;;4983674;28;20708;-78
2024/02/26 02:14:52;;;;;;;6.47;3.90;;;1.10;1.00;;;;;;4991247;28;20289;-80
2024/02/26 02:17:19;;;;;;;6.13;4.23;;;1.00;1.00;;;;;;4987559;28;20300;-79
2024/02/26 02:19:47;;;;;;;7.80;4.60;;;0.90;1.00;;;;;;5002594;28;20233;-79
2024/02/26 02:22:15;;;;;;;8.47;4.57;;;1.10;31.60;;;;;;4990770;28;20637;-80
2024/02/26 02:24:42;;;;;;;8.20;4.90;;;1.20;99.90;;;;;;4991236;28;20216;-80
2024/02/26 02:27:09;;;;;;;5.47;3.87;;;1.20;96.40;;;;;;4987489;28;20224;-80
2024/02/26 02:29:36;;;;;;;7.07;4.50;;;1.20;93.90;;;;;;4990939;28;20229;-79
2024/02/26 02:32:05;;;;;;;9.27;5.23;;;1.10;20.80;;;;;;4987800;28;20209;-80
2024/02/26 02:34:33;;;;;;;6.80;4.37;;;1.10;99.90;;;;;;4986772;28;20631;-80
2024/02/26 02:37:00;;;;;;;7.63;4.47;;;1.10;99.90;;;;;;4989741;28;20220;-80
2024/02/26 02:39:28;;;;;;;5.27;3.93;;;1.10;99.90;;;;;;4996270;28;20312;-80
2024/02/26 02:41:55;;;;;;;6.63;4.67;;;0.80;1.00;;;;;;4993569;28;20639;-80
2024/02/26 02:44:22;;;;;;;5.40;4.10;;;0.70;99.90;;;;;;4993044;28;20205;-80
2024/02/26 02:46:50;;;;;;;7.83;4.27;;;0.90;99.90;;;;;;4988750;28;20644;-80
2024/02/26 02:49:17;;;;;;;7.80;4.50;;;0.90;99.90;;;;;;4981237;28;20218;-80
2024/02/26 02:51:44;;;;;;;6.43;4.43;;;0.90;99.90;;;;;;4987569;28;21631;-80
2024/02/26 02:54:11;;;;;;;8.90;4.90;;;0.80;99.90;;;;;;4995969;28;20202;-79
2024/02/26 02:56:39;;;;;;;9.97;5.00;;;0.80;99.90;;;;;;4990909;28;20233;-79
2024/02/26 02:59:06;;;;;;;9.40;5.33;;;0.90;99.90;;;;;;4992115;28;20272;-79
2024/02/26 03:01:33;;;;;;;7.33;5.17;;;1.00;99.90;;;;;;4993270;28;20241;-78
2024/02/26 03:03:59;;;;;;;9.20;5.30;;;1.10;99.90;;;;;;4991129;28;20205;-78
2024/02/26 03:06:28;;;;;;;8.43;5.17;;;1.10;99.90;;;;;;4987999;28;20249;-79
2024/02/26 03:08:55;;;;;;;8.17;5.67;;;1.20;99.90;;;;;;4987714;28;20232;-77
2024/02/26 03:11:22;;;;;;;9.10;5.47;;;1.20;99.90;;;;;;5004498;28;20201;-79
2024/02/26 03:13:50;;;;;;;8.20;5.50;;;1.10;99.90;;;;;;5002287;28;20201;-77
2024/02/26 03:16:18;;;;;;;9.50;5.60;;;1.20;99.90;;;;;;4995815;28;20202;-78
2024/02/26 03:18:45;;;;;;;8.63;5.43;;;1.30;99.90;;;;;;4990795;28;20220;-79
2024/02/26 03:21:12;;;;;;;10.23;6.00;;;1.30;99.90;;;;;;4994668;28;20300;-79
2024/02/26 03:23:39;;;;;;;8.27;5.30;;;1.30;99.90;;;;;;4995676;28;20295;-79
2024/02/26 03:26:06;;;;;;;7.97;4.60;;;1.30;99.90;;;;;;4999615;28;20239;-79
2024/02/26 03:28:33;;;;;;;10.33;6.20;;;1.20;99.90;;;;;;4998798;28;20209;-79
2024/02/26 03:31:02;;;;;;;7.47;5.63;;;1.50;99.90;;;;;;4996032;28;20213;-78
2024/02/26 03:33:29;;;;;;;8.83;5.73;;;1.10;99.90;;;;;;4998411;28;20215;-78
2024/02/26 03:35:55;;;;;;;9.67;5.17;;;1.10;99.90;;;;;;4997702;28;20212;-79
2024/02/26 03:38:22;;;;;;;8.80;5.50;;;1.10;99.90;;;;;;4995199;28;20269;-78
2024/02/26 03:40:49;;;;;;;10.30;5.67;;;1.10;99.90;;;;;;4995875;28;20249;-78
2024/02/26 03:43:17;;;;;;;8.93;5.40;;;1.00;99.90;;;;;;4996385;28;20278;-78
2024/02/26 03:45:44;;;;;;;9.73;5.70;;;1.00;99.90;;;;;;4997928;28;20694;-78
2024/02/26 03:48:12;;;;;;;7.63;5.00;;;0.90;99.90;;;;;;5000299;28;20201;-79
2024/02/26 03:50:39;;;;;;;7.77;4.73;;;1.10;99.90;;;;;;5000395;28;20256;-78
2024/02/26 03:53:08;;;;;;;8.07;5.20;;;1.20;99.90;;;;;;4994110;28;20205;-79
2024/02/26 03:55:35;;;;;;;6.83;4.73;;;1.20;99.90;;;;;;4995024;28;20205;-78
2024/02/26 03:58:03;;;;;;;8.67;5.30;;;1.20;99.90;;;;;;5006038;28;20265;-78
2024/02/26 04:00:30;;;;;;;7.90;5.13;;;1.20;99.90;;;;;;4998056;28;20250;-79
2024/02/26 04:02:57;;;;;;;6.87;4.70;;;1.40;99.90;;;;;;4994812;28;20213;-79
2024/02/26 04:05:25;;;;;;;6.27;4.00;;;1.30;99.90;;;;;;4992174;28;20265;-79
2024/02/26 04:07:52;;;;;;;5.43;4.17;;;1.40;99.90;;;;;;4990878;28;20202;-78
2024/02/26 04:10:18;;;;;;;5.50;3.90;;;1.50;99.90;;;;;;4991320;28;20241;-79
2024/02/26 04:12:46;;;;;;;5.20;3.93;;;1.60;99.90;;;;;;4990018;28;20283;-79
2024/02/26 04:15:13;;;;;;;7.33;4.17;;;1.70;99.90;;;;;;4993064;28;20209;-78
2024/02/26 04:17:41;;;;;;;6.60;4.47;;;1.70;99.90;;;;;;5006744;28;20658;-79
2024/02/26 04:20:13;;;;;;;6.03;4.30;;;1.70;99.90;;;;;;5005444;28;20249;-78
2024/02/26 04:22:42;;;;;;;7.77;4.40;;;1.80;99.90;;;;;;4997060;28;20225;-79
2024/02/26 04:25:09;;;;;;;4.70;3.80;;;1.80;99.90;;;;;;5000340;28;20332;-78
2024/02/26 04:27:36;;;;;;;5.57;4.33;;;1.80;99.90;;;;;;4994977;28;20295;-78
2024/02/26 04:30:04;;;;;;;4.77;3.60;;;1.70;99.90;;;;;;4995628;28;20248;-78
2024/02/26 04:32:31;;;;;;;7.20;4.33;;;1.60;99.90;;;;;;4998446;28;20209;-79
2024/02/26 04:34:58;;;;;;;5.67;3.63;;;1.70;99.90;;;;;;4998594;28;20303;-79
2024/02/26 04:37:30;;;;;;;7.43;4.53;;;1.80;99.90;;;;;;4994742;28;20201;-79
2024/02/26 04:39:59;;;;;;;7.20;3.97;;;1.80;99.90;;;;;;4999776;28;20226;-78
2024/02/26 04:42:26;;;;;;;5.40;4.00;;;1.80;99.90;;;;;;4995723;28;20265;-79
2024/02/26 04:44:52;;;;;;;6.57;3.90;;;1.90;99.90;;;;;;5000710;28;20213;-79
2024/02/26 04:47:19;;;;;;;5.77;3.87;;;1.90;99.90;;;;;;4998335;28;20248;-78
2024/02/26 04:49:46;;;;;;;5.80;4.10;;;1.90;99.90;;;;;;4996707;28;20231;-79
2024/02/26 04:52:13;;;;;;;6.77;3.87;;;2.00;99.90;;;;;;5000154;28;20222;-78
2024/02/26 04:54:40;;;;;;;5.57;4.17;;;2.00;99.90;;;;;;4999027;28;20241;-79
2024/02/26 04:57:08;;;;;;;5.40;3.50;;;2.00;99.90;;;;;;4998876;28;20233;-79
2024/02/26 04:59:35;;;;;;;6.17;3.77;;;2.10;99.90;;;;;;4999460;28;20684;-79
2024/02/26 05:02:02;;;;;;;5.47;3.80;;;2.10;99.90;;;;;;4997400;28;20208;-78
2024/02/26 05:04:29;;;;;;;6.10;3.83;;;2.00;99.90;;;;;;4994282;28;20206;-79
2024/02/26 05:06:56;;;;;;;6.10;3.70;;;2.00;99.90;;;;;;4989708;28;20218;-78
2024/02/26 05:09:23;;;;;;;4.77;3.27;;;2.10;99.90;;;;;;4990033;28;20229;-79
2024/02/26 05:11:50;;;;;;;6.13;4.07;;;2.00;99.90;;;;;;4990094;28;20201;-78
2024/02/26 05:14:18;;;;;;;6.20;4.37;;;2.00;99.90;;;;;;4996055;28;20680;-79
2024/02/26 05:16:45;;;;;;;7.37;4.17;;;1.80;99.90;;;;;;4989406;28;20210;-78
2024/02/26 05:19:12;;;;;;;7.23;4.20;;;1.70;99.90;;;;;;4989983;28;20616;-81
2024/02/26 05:21:39;;;;;;;6.60;4.40;;;1.70;99.90;;;;;;5003127;28;20239;-78
2024/02/26 05:24:07;;;;;;;8.53;4.67;;;2.10;99.90;;;;;;5001967;28;20659;-78
2024/02/26 05:26:33;;;;;;;8.07;4.57;;;1.70;99.90;;;;;;5001946;28;20221;-79
2024/02/26 05:29:00;;;;;;;6.40;4.13;;;1.70;99.90;;;;;;4996163;28;20257;-78
2024/02/26 05:31:29;;;;;;;10.33;4.70;;;1.70;99.90;;;;;;4995150;28;20264;-78
2024/02/26 05:33:56;;;;;;;7.70;4.77;;;1.80;99.90;;;;;;4995581;28;20211;-78
2024/02/26 05:36:23;;;;;;;7.17;4.33;;;1.80;99.90;;;;;;4997663;28;20198;-79
2024/02/26 05:38:50;;;;;;;6.70;4.13;;;1.80;99.90;;;;;;4996984;28;20249;-79
2024/02/26 05:41:22;;;;;;;6.63;4.70;;;1.80;99.90;;;;;;4996559;28;20288;-79
2024/02/26 05:43:49;;;;;;;6.90;4.80;;;1.90;99.90;;;;;;4995764;28;20600;-78
2024/02/26 05:46:17;;;;;;;8.07;4.40;;;2.00;99.90;;;;;;4996167;28;20229;-78
2024/02/26 05:48:47;;;;;;;7.80;5.17;;;2.10;99.90;;;;;;4998020;28;20283;-79
2024/02/26 05:51:14;;;;;;;7.20;4.47;;;2.10;99.90;;;;;;4996162;28;20209;-79
2024/02/26 05:53:42;;;;;;;9.70;4.67;;;2.10;99.90;;;;;;4997687;28;20201;-78
2024/02/26 05:56:08;;;;;;;6.00;4.60;;;2.40;99.90;;;;;;4997614;28;20273;-79
2024/02/26 05:58:35;;;;;;;7.73;5.30;;;2.00;99.90;;;;;;4996023;28;20212;-78
2024/02/26 06:01:02;;;;;;;8.53;4.60;;;1.90;99.90;;;;;;4998639;28;20205;-79
2024/02/26 06:03:29;;;;;;;9.07;5.00;;;1.90;99.90;;;;;;4993592;28;20233;-79
2024/02/26 06:05:57;;;;;;;10.77;4.80;;;2.00;99.90;;;;;;4995151;28;20292;-79
2024/02/26 06:08:24;;;;;;;11.27;5.07;;;2.00;99.90;;;;;;4986889;28;20256;-78
2024/02/26 06:10:51;;;;;;;12.73;5.90;;;2.00;99.90;;;;;;4987381;28;20312;-79
2024/02/26 06:13:17;;;;;;;11.07;5.03;;;2.00;99.90;;;;;;4988015;28;20217;-79
2024/02/26 06:15:44;;;;;;;9.57;5.07;;;2.10;99.90;;;;;;4988324;28;20202;-78
2024/02/26 06:18:11;;;;;;;11.10;5.57;;;2.20;99.90;;;;;;4987956;28;20213;-78
2024/02/26 06:20:38;;;;;;;7.90;4.80;;;2.20;99.90;;;;;;4987137;28;20316;-78
2024/02/26 06:23:07;;;;;;;8.90;5.33;;;2.20;99.90;;;;;;4992247;28;20236;-77
2024/02/26 06:25:33;;;;;;;8.27;5.30;;;2.10;99.90;;;;;;4989221;28;20205;-79
2024/02/26 06:28:00;;;;;;;10.63;5.30;;;2.50;99.90;;;;;;4995480;28;20327;-79
2024/02/26 06:30:27;;;;;;;9.63;5.80;;;2.10;99.90;;;;;;5002928;28;20643;-77
2024/02/26 06:32:54;;;;;;;10.53;5.47;;;2.10;99.90;;;;;;4998404;28;20238;-79
2024/02/26 06:35:21;;;;;;;10.80;5.17;;;2.20;99.90;;;;;;4993963;28;20244;-78
2024/02/26 06:37:50;;;;;;;8.70;5.07;;;2.30;99.90;;;;;;4995687;28;20588;-79
2024/02/26 06:40:18;;;;;;;10.30;5.50;;;2.40;99.90;;;;;;4996939;28;20754;-78
2024/02/26 06:42:45;;;;;;;8.23;5.20;;;2.40;99.90;;;;;;4996092;28;20241;-78
2024/02/26 06:45:12;;;;;;;10.40;5.67;;;2.40;99.90;;;;;;5000043;28;20304;-79
2024/02/26 06:47:39;;;;;;;10.10;5.83;;;2.30;99.90;;;;;;4999109;28;20312;-78
2024/02/26 06:50:06;;;;;;;10.07;5.77;;;2.30;99.90;;;;;;5000545;28;20217;-78
2024/02/26 06:52:33;;;;;;;10.37;5.70;;;2.30;99.90;;;;;;4997484;28;20285;-78
2024/02/26 06:55:00;;;;;;;11.00;6.13;;;2.40;99.90;;;;;;5002059;28;20692;-79
2024/02/26 06:57:28;;;;;;;9.47;5.23;;;2.50;99.90;;;;;;5003253;28;20235;-79
2024/02/26 06:59:55;;;;;;;9.30;5.63;;;3.00;99.90;;;;;;5002041;28;20228;-79
2024/02/26 07:02:22;;;;;;;10.80;5.70;;;2.50;99.90;;;;;;5001018;28;20205;-79
2024/02/26 07:04:49;;;;;;;10.20;5.87;;;2.60;99.90;;;;;;5003307;28;20269;-79
2024/02/26 07:07:17;;;;;;;10.43;5.80;;;2.60;99.90;;;;;;4997406;28;20635;-79
2024/02/26 07:09:44;;;;;;;12.77;6.00;;;2.60;99.90;;;;;;4995663;28;20227;-78
2024/02/26 07:12:11;;;;;;;9.10;6.20;;;2.70;99.90;;;;;;4992966;28;20224;-79
2024/02/26 07:14:39;;;;;;;14.73;6.27;;;2.80;99.90;;;;;;4991797;28;20237;-79
2024/02/26 07:17:06;;;;;;;17.30;6.07;;;2.80;99.90;;;;;;4993406;28;20274;-78
2024/02/26 07:19:33;;;;;;;9.40;5.93;;;2.80;99.90;;;;;;4999023;28;20301;-78
2024/02/26 07:22:01;;;;;;;12.57;6.10;;;2.80;99.90;;;;;;4992945;28;20202;-78
2024/02/26 07:24:28;;;;;;;12.80;5.63;;;2.80;99.90;;;;;;4993435;28;20664;-78
2024/02/26 07:26:55;;;;;;;16.43;6.10;;;2.80;99.90;;;;;;4995796;28;20724;-79
2024/02/26 07:29:22;;;;;;;16.50;6.13;;;2.90;99.90;;;;;;4991688;28;20240;-79
2024/02/26 07:31:50;;;;;;;14.73;6.33;;;2.90;99.90;;;;;;4988857;28;20274;-78
2024/02/26 07:34:17;;;;;;;11.40;6.17;;;2.90;99.90;;;;;;5001394;28;20373;-78
2024/02/26 07:36:44;;;;;;;13.70;6.50;;;3.00;99.90;;;;;;5002712;28;20292;-77
2024/02/26 07:39:11;;;;;;;11.40;5.73;;;3.10;99.90;;;;;;5000732;28;20479;-78
2024/02/26 07:41:39;;;;;;;20.77;6.40;;;3.10;99.90;;;;;;4995480;28;20277;-77
2024/02/26 07:44:05;;;;;;;13.93;6.67;;;3.10;99.90;;;;;;4997282;28;20296;-78
2024/02/26 07:46:32;;;;;;;18.17;6.63;;;3.20;99.90;;;;;;4996009;28;20211;-77
2024/02/26 07:49:00;;;;;;;18.77;6.43;;;3.30;99.90;;;;;;4997552;28;20245;-78
2024/02/26 07:51:27;;;;;;;14.13;5.73;;;3.30;99.90;;;;;;4997225;28;20237;-78
2024/02/26 07:53:54;;;;;;;9.63;6.13;;;3.40;99.90;;;;;;5000028;28;20304;-78
2024/02/26 07:56:21;;;;;;;11.50;5.73;;;3.30;99.90;;;;;;4998517;28;20292;-77
2024/02/26 07:58:48;;;;;;;9.00;5.60;;;3.40;99.90;;;;;;4997094;28;20221;-78
2024/02/26 08:01:15;;;;;;;9.87;6.07;;;3.40;99.90;;;;;;5000215;28;20228;-78
2024/02/26 08:03:42;;;;;;;11.93;6.43;;;3.50;99.90;;;;;;4993914;28;20241;-77
2024/02/26 08:06:10;;;;;;;12.07;6.30;;;3.60;99.90;;;;;;4994552;28;20198;-78
2024/02/26 08:08:37;;;;;;;9.80;6.07;;;3.60;99.90;;;;;;4983515;28;20249;-77
2024/02/26 08:11:04;;;;;;;11.17;6.70;;;3.60;99.90;;;;;;4986762;28;20268;-78
2024/02/26 08:13:32;;;;;;;12.30;6.20;;;3.60;99.90;;;;;;4985035;28;20202;-78
2024/02/26 08:15:58;;;;;;;10.13;6.17;;;3.60;99.90;;;;;;4986244;28;20201;-78
2024/02/26 08:18:25;;;;;;;8.63;6.00;;;3.70;99.90;;;;;;4989278;28;20232;-78
2024/02/26 08:20:52;;;;;;;11.13;6.47;;;3.80;99.90;;;;;;4992893;28;20651;-78
2024/02/26 08:23:20;;;;;;;10.33;6.57;;;3.90;1.00;;;;;;4987397;28;20717;-77
2024/02/26 08:25:47;;;;;;;10.10;6.00;;;3.90;1.00;;;;;;4989458;28;20198;-78
2024/02/26 08:28:14;;;;;;;9.10;7.03;;;3.90;1.00;;;;;;4985987;28;20280;-78
2024/02/26 08:30:41;;;;;;;8.97;6.17;;;4.00;1.00;;;;;;4984796;28;20289;-78
2024/02/26 08:33:08;;;;;;;12.80;8.23;;;4.00;1.00;;;;;;4985136;28;20209;-78
2024/02/26 08:35:35;;;;;;;17.07;10.57;;;4.00;1.00;;;;;;4990414;28;20205;-78
2024/02/26 08:38:02;;;;;;;15.90;10.70;;;4.20;1.00;;;;;;4990504;28;20237;-78
2024/02/26 08:40:30;;;;;;;11.17;7.07;;;4.00;99.90;;;;;;4999680;28;20280;-78
2024/02/26 08:45:38;;;;;;;9.80;7.37;;;4.10;99.90;;;;;;5123272;27;20613;-78
2024/02/26 08:48:05;;;;;;;9.97;7.70;;;4.20;77.70;;;;;;5130540;28;20201;-78
2024/02/26 08:50:32;;;;;;;9.90;6.70;;;4.20;99.90;;;;;;5128465;28;20335;-78
2024/02/26 08:53:01;;;;;;;8.63;5.77;;;4.20;99.90;;;;;;5129205;28;20272;-78
2024/02/26 08:55:27;;;;;;;14.87;6.80;;;4.30;1.00;;;;;;5132450;27;20222;-78
2024/02/26 08:57:54;;;;;;;11.57;7.40;;;4.30;1.00;;;;;;5130370;28;20284;-78
2024/02/26 09:00:21;;;;;;;11.37;6.90;;;4.30;1.00;;;;;;5131142;27;20308;-78
2024/02/26 09:02:50;;;;;;;11.20;6.53;;;4.40;1.00;;;;;;5131965;28;20268;-78
2024/02/26 09:05:17;;;;;;;9.37;6.37;;;4.50;1.00;;;;;;5126007;28;20598;-78
2024/02/26 09:07:44;;;;;;;10.27;6.80;;;4.60;99.90;;;;;;5124624;27;20757;-78
2024/02/26 09:10:11;;;;;;;9.53;6.17;;;4.60;1.00;;;;;;5116272;28;20235;-78
2024/02/26 09:12:39;;;;;;;11.77;7.07;;;4.70;1.00;;;;;;5119676;28;20273;-78
2024/02/26 09:15:08;;;;;;;11.07;6.63;;;4.70;1.00;;;;;;5117582;28;20201;-78
2024/02/26 09:17:34;;;;;;;9.97;6.27;;;4.80;1.00;;;;;;5120322;28;20215;-78
2024/02/26 09:20:03;;;;;;;11.87;6.90;;;4.80;1.00;;;;;;5121441;28;20237;-78
2024/02/26 09:22:30;;;;;;;10.67;6.30;;;4.90;1.00;;;;;;5122980;28;20208;-78
2024/02/26 09:24:57;;;;;;;12.27;6.13;;;4.80;1.00;;;;;;5114887;28;20221;-77
2024/02/26 09:27:24;;;;;;;16.40;7.17;;;5.00;1.00;;;;;;5116248;28;20247;-78
2024/02/26 09:29:51;;;;;;;11.43;6.90;;;5.00;1.00;;;;;;5121620;28;20225;-78
2024/02/26 09:32:18;;;;;;;16.40;7.03;;;5.00;1.00;;;;;;5121800;28;20215;-78
2024/02/26 09:34:44;;;;;;;15.37;6.33;;;5.00;1.00;;;;;;5114598;28;20642;-77
2024/02/26 09:37:13;;;;;;;14.63;6.27;;;5.10;99.90;;;;;;5115303;28;20269;-78
2024/02/26 09:39:40;;;;;;;14.40;7.23;;;5.20;99.90;;;;;;5122679;28;20806;-78
2024/02/26 09:42:09;;;;;;;11.07;5.67;;;5.30;1.00;;;;;;5116311;28;20292;-78
2024/02/26 09:44:40;;;;;;;14.97;6.13;;;5.30;1.00;;;;;;5123048;28;20229;-78
2024/02/26 09:47:10;;;;;;;10.13;5.87;;;5.40;1.00;;;;;;5124854;27;20204;-78
2024/02/26 09:49:37;;;;;;;14.63;6.97;;;5.40;1.00;;;;;;5129291;27;20284;-78
2024/02/26 09:52:06;;;;;;;11.87;5.80;;;5.50;1.00;;;;;;5126120;28;20201;-78
2024/02/26 09:54:34;;;;;;;8.23;5.23;;;5.60;1.00;;;;;;5131780;27;20228;-78
2024/02/26 09:57:04;;;;;;;10.53;6.47;;;5.70;99.90;;;;;;5118686;28;20229;-78
2024/02/26 09:59:39;;;;;;;9.67;5.23;;;5.70;39.60;;;;;;5118552;28;20231;-78
2024/02/26 10:02:08;;;;;;;10.23;4.97;;;5.70;1.00;;;;;;5120497;28;20211;-78
2024/02/26 10:04:35;;;;;;;9.80;5.10;;;5.80;1.00;;;;;;5106443;28;20252;-78
2024/02/26 10:07:03;;;;;;;8.60;5.20;;;5.80;1.00;;;;;;5107593;28;20273;-78
2024/02/26 10:09:30;;;;;;;9.63;5.83;;;5.80;1.00;;;;;;5113628;28;20236;-78
2024/02/26 10:11:59;;;;;;;7.13;4.87;;;5.80;1.00;;;;;;5103719;28;20226;-78
2024/02/26 10:14:26;;;;;;;7.97;5.00;;;5.80;1.00;;;;;;5103468;28;20205;-78
2024/02/26 10:16:53;;;;;;;7.40;4.80;;;5.80;1.00;;;;;;5103318;28;20652;-78
2024/02/26 10:19:27;;;;;;;7.57;4.53;;;5.80;1.00;;;;;;5106877;28;20233;-78
2024/02/26 10:21:57;;;;;;;8.37;5.27;;;5.90;1.00;;;;;;5100301;28;20204;-77
2024/02/26 10:24:25;;;;;;;9.90;4.80;;;5.90;99.90;;;;;;5103162;28;20600;-77
2024/02/26 10:26:52;;;;;;;7.87;4.67;;;6.00;1.00;;;;;;5103213;28;20228;-77
2024/02/26 10:29:21;;;;;;;7.57;5.00;;;6.00;99.90;;;;;;5103788;28;20630;-77
2024/02/26 10:31:48;;;;;;;8.20;4.63;;;6.00;99.90;;;;;;5102693;28;20236;-77
2024/02/26 10:34:16;;;;;;;6.70;4.73;;;6.00;99.90;;;;;;5103703;28;20670;-77
2024/02/26 10:36:43;;;;;;;10.10;4.70;;;6.10;1.00;;;;;;5095582;28;20204;-76
2024/02/26 10:39:12;;;;;;;13.60;4.90;;;6.00;1.00;;;;;;5099563;28;20225;-77
2024/02/26 10:41:40;;;;;;;7.50;4.57;;;6.10;99.90;;;;;;5100219;28;20201;-76
2024/02/26 10:44:09;;;;;;;17.37;5.27;;;6.10;99.90;;;;;;5103238;28;20288;-77
2024/02/26 10:46:38;;;;;;;7.93;4.20;;;6.10;99.90;;;;;;5102210;28;20235;-77
2024/02/26 10:49:06;;;;;;;7.17;4.17;;;6.10;1.00;;;;;;5106134;28;20772;-77
2024/02/26 10:51:36;;;;;;;6.10;4.13;;;6.10;44.70;;;;;;5102332;28;20212;-77
2024/02/26 10:54:07;;;;;;;6.80;4.30;;;6.20;1.00;;;;;;5110489;27;20215;-77
2024/02/26 10:56:35;;;;;;;8.73;4.37;;;6.20;1.00;;;;;;5112853;28;20266;-77
2024/02/26 10:59:03;;;;;;;5.67;4.10;;;5.70;1.00;;;;;;5110486;28;20237;-77
2024/02/26 11:01:31;;;;;;;4.47;3.40;;;6.40;56.90;;;;;;5113641;28;20682;-77
2024/02/26 11:04:01;;;;;;;8.23;3.60;;;6.40;1.00;;;;;;5103786;28;21039;-77
2024/02/26 11:06:29;;;;;;;5.10;3.63;;;6.40;1.00;;;;;;5100812;28;20235;-77
2024/02/26 11:08:57;;;;;;;6.70;3.53;;;6.50;1.00;;;;;;5094102;28;20308;-77
2024/02/26 11:11:24;;;;;;;6.60;4.00;;;6.60;1.00;;;;;;5094309;28;20645;-76
2024/02/26 11:13:53;;;;;;;4.63;3.23;;;6.60;1.00;;;;;;5096898;28;20212;-77
2024/02/26 11:16:22;;;;;;;6.33;3.53;;;6.70;1.00;;;;;;5097207;28;20301;-77
2024/02/26 11:18:50;;;;;;;5.90;3.50;;;6.70;1.00;;;;;;5096882;28;20240;-77
2024/02/26 11:21:19;;;;;;;7.53;3.60;;;6.90;1.00;;;;;;5097923;28;20296;-77
2024/02/26 11:23:47;;;;;;;9.07;3.50;;;6.80;1.00;;;;;;5097089;28;20228;-77
2024/02/26 11:26:16;;;;;;;4.40;3.20;;;6.80;1.00;;;;;;5097420;28;20304;-77
2024/02/26 11:28:44;;;;;;;6.60;4.10;;;7.00;99.90;;;;;;5099744;28;20205;-77
2024/02/26 11:31:13;;;;;;;5.83;3.03;;;6.90;99.90;;;;;;5099892;28;20287;-77
2024/02/26 11:33:40;;;;;;;7.77;3.60;;;7.00;99.90;;;;;;5093241;28;20202;-77
2024/02/26 11:36:10;;;;;;;8.13;3.47;;;7.00;99.90;;;;;;5097266;28;20668;-77
2024/02/26 11:38:39;;;;;;;4.80;3.70;;;7.20;99.90;;;;;;5098315;28;20581;-77
2024/02/26 11:41:06;;;;;;;7.07;4.07;;;7.20;99.90;;;;;;5098068;28;20236;-77
2024/02/26 11:43:52;;;;;;;6.20;3.80;;;7.20;99.90;;;;;;5098233;28;20213;-78
2024/02/26 11:46:30;;;;;;;5.27;3.67;;;7.20;99.90;;;;;;5104962;28;20243;-77
2024/02/26 11:49:00;;;;;;;5.77;3.83;;;7.20;99.90;;;;;;5100521;28;20221;-76
2024/02/26 11:51:28;;;;;;;4.97;3.50;;;7.20;99.90;;;;;;5100230;28;20658;-76
2024/02/26 11:53:58;;;;;;;5.30;3.87;;;7.20;99.90;;;;;;5093333;28;20640;-77
2024/02/26 11:56:26;;;;;;;7.50;4.83;;;7.20;99.90;;;;;;5101150;28;20244;-77
2024/02/26 11:59:01;;;;;;;5.67;3.67;;;7.20;99.90;;;;;;5101473;28;20225;-77
2024/02/26 12:01:38;;;;;;;6.60;4.07;;;7.20;99.90;;;;;;5110003;28;20585;-77
2024/02/26 12:04:07;;;;;;;17.73;4.87;;;7.30;99.90;;;;;;5102757;28;20258;-77
2024/02/26 12:06:45;;;;;;;14.50;5.00;;;7.30;99.90;;;;;;5098711;28;20288;-77
2024/02/26 12:09:14;;;;;;;6.70;3.27;;;7.30;99.90;;;;;;5107545;28;20308;-76
2024/02/26 12:11:43;;;;;;;8.30;4.40;;;7.30;99.90;;;;;;5093696;28;20209;-77
2024/02/26 12:14:10;;;;;;;7.87;4.57;;;7.30;62.80;;;;;;5093930;28;20751;-77
2024/02/26 12:16:39;;;;;;;6.83;4.70;;;7.40;99.90;;;;;;5093175;28;20212;-77
2024/02/26 12:19:07;;;;;;;6.53;4.00;;;7.60;1.00;;;;;;5094881;28;20690;-77
2024/02/26 12:21:36;;;;;;;6.97;4.23;;;7.50;1.00;;;;;;5094214;28;20288;-77
2024/02/26 12:24:12;;;;;;;8.90;4.50;;;7.70;1.00;;;;;;5093606;28;20208;-77
2024/02/26 12:26:40;;;;;;;7.03;4.37;;;7.80;52.10;;;;;;5095117;28;20252;-77
2024/02/26 12:29:08;;;;;;;9.43;5.13;;;7.90;1.00;;;;;;5095336;28;20687;-77
2024/02/26 12:31:36;;;;;;;9.70;4.67;;;7.80;1.00;;;;;;5099942;28;20209;-77
2024/02/26 12:34:04;;;;;;;7.97;4.03;;;7.90;1.00;;;;;;5094865;28;20262;-77
2024/02/26 12:36:31;;;;;;;9.70;4.43;;;8.00;1.00;;;;;;5099263;28;20232;-77
2024/02/26 12:38:58;;;;;;;10.87;5.27;;;8.00;1.00;;;;;;5092146;28;20300;-76
2024/02/26 12:41:25;;;;;;;8.83;4.90;;;8.00;1.00;;;;;;5102091;28;20280;-77
2024/02/26 12:43:54;;;;;;;9.10;5.30;;;8.00;1.00;;;;;;5095840;28;20636;-77
2024/02/26 12:46:21;;;;;;;7.10;5.03;;;8.00;1.00;;;;;;5097708;28;20223;-77
2024/02/26 12:48:48;;;;;;;8.67;5.00;;;8.10;1.00;;;;;;5091952;28;20301;-77
2024/02/26 12:51:17;;;;;;;10.27;5.67;;;8.20;1.00;;;;;;5096985;28;20291;-77
2024/02/26 12:53:45;;;;;;;8.67;5.53;;;8.20;1.00;;;;;;5098447;28;20236;-77
2024/02/26 12:56:13;;;;;;;8.83;5.30;;;8.10;1.00;;;;;;5095860;28;20251;-77
2024/02/26 12:58:41;;;;;;;9.83;5.60;;;8.20;1.00;;;;;;5102095;28;20205;-77
2024/02/26 13:01:15;;;;;;;10.80;5.87;;;8.20;1.00;;;;;;5107047;28;20566;-77
2024/02/26 13:03:43;;;;;;;9.17;5.90;;;8.20;1.00;;;;;;5099732;28;20651;-77